Saint-Michel-Des-Saints, Canada
Current Conditions -  °F | °C
As of 3:00 PM on Friday 28 Nov 2014 (Local Time) from CYRQ Reporting Station
Overcast Overcast  
Wind Chill: 15°   Ceiling: 4000
Heat Index: 25°   Visibility: 9mi
Dew Point: 12°   Wind: 10mph
Humidity: 59%   Direction: 230°SW
Pressure: 30.07"   Gusts: NA
Location:  46.67°N, 73.92°W
Report Text: CYRQ 282000Z AUTO 23009KT 9SM OVC040 M04/M11 A3007 RMK SLP185
Loading
Personal Weather Stations






























Interactive Weather Map New forecast layout! Learn more

10-Day Weather Forecast

Advertisements
Track Severe Weather on mobile